createdAt,value
2023-04-11T00:00:45.841Z,39.10
2023-04-11T00:03:20.366Z,35.73
2023-04-11T00:05:50.697Z,37.53
2023-04-11T00:08:21.119Z,35.83
2023-04-11T00:10:51.338Z,35.83
2023-04-11T00:13:24.113Z,35.93
2023-04-11T00:15:56.032Z,36.30
2023-04-11T00:18:28.857Z,36.17
2023-04-11T00:20:59.032Z,34.60
2023-04-11T00:23:29.377Z,35.20
2023-04-11T00:25:59.593Z,33.00
2023-04-11T00:28:29.784Z,28.80
2023-04-11T00:30:59.951Z,30.75
2023-04-11T00:33:32.838Z,30.27
2023-04-11T00:36:03.129Z,27.65
2023-04-11T00:38:33.270Z,27.63
2023-04-11T00:41:03.634Z,27.17
2023-04-11T00:43:33.781Z,27.23
2023-04-11T00:46:04.196Z,26.10
2023-04-11T00:48:36.986Z,26.40
2023-04-11T00:51:07.527Z,25.15
2023-04-11T00:53:39.165Z,27.85
2023-04-11T00:56:10.279Z,27.20
2023-04-11T01:01:12.107Z,25.95
2023-04-11T01:03:48.539Z,26.08
2023-04-11T01:06:22.990Z,25.52
2023-04-11T01:08:53.779Z,25.40
2023-04-11T01:11:24.413Z,25.02
2023-04-11T01:13:55.752Z,27.17
2023-04-11T01:16:25.969Z,25.90
2023-04-11T01:18:59.208Z,28.33
2023-04-11T01:21:30.223Z,28.98
2023-04-11T01:24:03.992Z,29.35
2023-04-11T01:26:34.200Z,31.50
2023-04-11T01:29:05.654Z,31.75
2023-04-11T01:31:35.956Z,30.42
2023-04-11T01:34:07.711Z,31.40
2023-04-11T01:36:38.344Z,32.63
2023-04-11T01:39:11.437Z,30.63
2023-04-11T01:41:42.678Z,29.02
2023-04-11T01:44:13.001Z,29.25
2023-04-11T01:46:43.322Z,28.27
2023-04-11T01:49:15.689Z,29.58
2023-04-11T01:51:46.142Z,30.63
2023-04-11T01:54:19.216Z,32.90
2023-04-11T01:56:49.728Z,31.45
2023-04-11T01:59:20.118Z,34.40
2023-04-11T02:01:50.540Z,33.13
2023-04-11T02:04:20.867Z,35.03
2023-04-11T02:06:51.055Z,33.60
2023-04-11T02:09:25.237Z,31.30
2023-04-11T02:11:57.311Z,36.28
2023-04-11T02:14:30.188Z,36.53
2023-04-11T02:17:00.790Z,33.45
2023-04-11T02:19:31.359Z,33.40
2023-04-11T02:22:02.175Z,33.22
2023-04-11T02:24:35.028Z,32.90
2023-04-11T02:27:05.914Z,32.92
2023-04-11T02:29:37.208Z,35.15
2023-04-11T02:32:07.528Z,35.13
2023-04-11T02:34:37.863Z,36.63
2023-04-11T02:37:08.088Z,34.80
2023-04-11T02:39:40.980Z,36.33
2023-04-11T02:42:11.398Z,36.97
2023-04-11T02:44:41.626Z,36.53
2023-04-11T02:47:11.984Z,36.38
2023-04-11T02:49:44.210Z,45.97
2023-04-11T02:52:19.281Z,49.38
2023-04-11T02:54:52.091Z,41.83
2023-04-11T02:57:22.258Z,44.47
2023-04-11T02:59:52.548Z,40.88
2023-04-11T03:02:30.453Z,41.88
2023-04-11T03:05:04.367Z,39.63
2023-04-11T03:07:38.770Z,39.28
2023-04-11T03:10:12.592Z,38.63
2023-04-11T03:12:43.159Z,39.75
2023-04-11T03:15:15.734Z,40.53
2023-04-11T03:20:19.958Z,39.72
2023-04-11T03:22:53.747Z,41.85
2023-04-11T03:25:28.411Z,40.88
2023-04-11T03:27:59.146Z,41.00
2023-04-11T03:33:01.437Z,42.05
2023-04-11T03:35:33.168Z,41.28
2023-04-11T03:38:03.525Z,43.30
2023-04-11T03:40:36.700Z,42.78
2023-04-11T03:43:14.615Z,41.88
2023-04-11T03:45:44.858Z,40.35
2023-04-11T03:48:26.744Z,40.45
2023-04-11T03:51:02.273Z,39.83
2023-04-11T03:53:40.896Z,40.58
2023-04-11T03:56:27.202Z,39.28
2023-04-11T03:58:57.846Z,39.17
2023-04-11T04:01:32.334Z,38.95
2023-04-11T04:04:06.699Z,41.53
2023-04-11T04:06:40.472Z,38.65
2023-04-11T04:09:11.460Z,40.13
2023-04-11T04:12:02.004Z,37.67
2023-04-11T04:17:20.960Z,38.38
2023-04-11T04:19:51.984Z,38.33
2023-04-11T04:22:24.032Z,38.47
2023-04-11T04:24:58.583Z,36.97
2023-04-11T04:27:34.669Z,38.40
2023-04-11T04:30:05.811Z,38.60
2023-04-11T04:32:49.132Z,39.28
2023-04-11T04:35:19.527Z,38.83
2023-04-11T04:37:50.304Z,39.33
2023-04-11T04:40:55.089Z,38.92
2023-04-11T04:43:32.582Z,38.40
2023-04-11T04:46:23.864Z,39.17
2023-04-11T04:48:56.965Z,36.92
2023-04-11T04:51:30.448Z,36.72
2023-04-11T04:54:00.691Z,38.03
2023-04-11T04:56:33.278Z,38.47
2023-04-11T04:59:06.333Z,37.55
2023-04-11T05:01:40.361Z,37.50
2023-04-11T05:04:14.228Z,35.47
2023-04-11T05:06:55.768Z,37.78
2023-04-11T05:09:26.649Z,37.10
2023-04-11T05:12:06.710Z,38.75
2023-04-11T05:14:42.439Z,40.15
2023-04-11T05:17:13.021Z,38.10
2023-04-11T05:19:44.109Z,39.28
2023-04-11T05:22:17.063Z,39.13
2023-04-11T05:24:52.073Z,39.13
2023-04-11T05:27:22.319Z,38.92
2023-04-11T05:29:55.476Z,39.05
2023-04-11T05:32:26.098Z,37.70
2023-04-11T05:34:59.257Z,38.78
2023-04-11T05:37:38.790Z,39.55
2023-04-11T05:40:11.857Z,39.28
2023-04-11T05:42:42.550Z,41.38
2023-04-11T05:45:15.816Z,40.38
2023-04-11T05:47:46.588Z,42.90
2023-04-11T05:50:17.717Z,39.20
2023-04-11T05:55:18.340Z,33.97
2023-04-11T05:57:48.593Z,36.33
2023-04-11T06:00:24.457Z,37.78
2023-04-11T06:02:55.343Z,37.38
2023-04-11T06:07:56.203Z,38.13
2023-04-11T06:10:26.593Z,37.08
2023-04-11T06:12:57.353Z,37.65
2023-04-11T06:15:30.666Z,34.22
2023-04-11T06:18:01.002Z,34.45
2023-04-11T06:20:31.462Z,34.95
2023-04-11T06:23:02.208Z,35.22
2023-04-11T06:25:32.618Z,36.58
2023-04-11T06:28:02.794Z,36.30
2023-04-11T06:30:36.092Z,33.50
2023-04-11T06:33:06.349Z,33.55
2023-04-11T06:35:36.977Z,32.63
2023-04-11T06:38:07.551Z,34.03
2023-04-11T06:40:39.141Z,31.73
2023-04-11T06:43:09.553Z,32.92
2023-04-11T06:45:42.890Z,33.47
2023-04-11T06:48:13.117Z,33.25
2023-04-11T06:50:43.408Z,34.13
2023-04-11T06:53:13.689Z,32.08
2023-04-11T06:55:43.817Z,32.70
2023-04-11T06:58:14.054Z,32.38
2023-04-11T07:00:47.170Z,30.70
2023-04-11T07:03:17.535Z,31.63
2023-04-11T07:05:51.012Z,35.17
2023-04-11T07:08:21.759Z,34.22
2023-04-11T07:13:24.780Z,33.60
2023-04-11T07:15:58.666Z,33.50
2023-04-11T07:18:29.010Z,33.80
2023-04-11T07:20:59.244Z,33.03
2023-04-11T07:23:29.434Z,34.17
2023-04-11T07:25:59.628Z,35.80
2023-04-11T07:28:31.512Z,34.27
2023-04-11T07:31:04.340Z,33.67
2023-04-11T07:33:34.697Z,34.20
2023-04-11T07:36:05.042Z,36.20
2023-04-11T07:38:37.868Z,36.08
2023-04-11T07:41:09.024Z,35.58
2023-04-11T07:43:39.527Z,30.75
2023-04-11T07:46:12.618Z,31.40
2023-04-11T07:48:42.919Z,30.63
2023-04-11T07:51:13.056Z,27.30
2023-04-11T07:53:43.232Z,28.30
2023-04-11T07:56:14.153Z,30.63
2023-04-11T07:58:44.617Z,27.38
2023-04-11T08:01:27.215Z,29.25
2023-04-11T08:04:00.105Z,27.73
2023-04-11T08:06:31.978Z,28.17
2023-04-11T08:09:02.266Z,29.33
2023-04-11T08:11:32.904Z,26.65
2023-04-11T08:14:03.563Z,23.27
2023-04-11T08:16:37.841Z,23.38
2023-04-11T08:19:08.078Z,22.80
2023-04-11T08:21:38.291Z,19.83
2023-04-11T08:24:08.870Z,19.25
2023-04-11T08:26:39.692Z,21.70
2023-04-11T08:29:11.530Z,19.48
2023-04-11T08:31:45.957Z,14.35
2023-04-11T08:34:17.600Z,18.15
2023-04-11T08:36:47.814Z,20.90
2023-04-11T08:39:17.990Z,20.10
2023-04-11T08:41:48.375Z,20.73
2023-04-11T08:44:18.816Z,18.92
2023-04-11T08:46:51.786Z,18.08
2023-04-11T08:49:22.103Z,25.83
2023-04-11T08:51:56.878Z,30.87
2023-04-11T08:54:27.836Z,27.88
2023-04-11T08:56:58.788Z,19.00
2023-04-11T09:02:10.094Z,22.33
2023-04-11T09:04:44.916Z,23.38
2023-04-11T09:07:16.082Z,23.83
2023-04-11T09:12:17.466Z,24.60
2023-04-11T09:14:47.878Z,27.98
2023-04-11T09:17:20.727Z,27.60
2023-04-11T09:19:51.033Z,27.08
2023-04-11T09:22:21.460Z,27.63
2023-04-11T09:25:05.397Z,28.13
2023-04-11T09:27:35.785Z,27.35
2023-04-11T09:30:06.109Z,27.35
2023-04-11T09:32:39.199Z,26.90
2023-04-11T09:35:15.939Z,26.63
2023-04-11T09:37:47.975Z,26.60
2023-04-11T09:40:21.255Z,23.98
2023-04-11T09:42:53.052Z,25.02
2023-04-11T09:45:24.809Z,24.42
2023-04-11T09:47:59.516Z,24.50
2023-04-11T09:50:32.599Z,25.33
2023-04-11T09:53:03.251Z,22.73
2023-04-11T09:55:33.740Z,24.00
2023-04-11T09:58:04.289Z,23.27
2023-04-11T10:00:35.600Z,23.25
2023-04-11T10:03:09.240Z,24.83
2023-04-11T10:05:41.384Z,24.13
2023-04-11T10:08:17.593Z,23.92
2023-04-11T10:10:50.995Z,23.08
2023-04-11T10:13:42.997Z,18.10
2023-04-11T10:16:15.653Z,16.08
2023-04-11T10:19:28.290Z,20.42
2023-04-11T10:22:01.415Z,15.18
2023-04-11T10:24:31.670Z,10.00
2023-04-11T10:27:04.421Z,10.30
2023-04-11T10:29:51.837Z,11.35
2023-04-11T10:32:24.412Z,9.85
2023-04-11T10:35:31.141Z,9.52
2023-04-11T10:38:03.900Z,9.45
2023-04-11T10:40:34.140Z,8.13
2023-04-11T10:43:23.664Z,8.77
2023-04-11T10:46:23.508Z,9.57
2023-04-11T10:49:00.969Z,8.75
2023-04-11T10:51:32.313Z,10.35
2023-04-11T10:54:06.390Z,10.30
2023-04-11T10:56:57.826Z,8.70
2023-04-11T11:00:12.873Z,9.48
2023-04-11T11:02:45.895Z,8.63
2023-04-11T11:05:23.629Z,8.85
2023-04-11T11:07:56.221Z,8.52
2023-04-11T11:10:43.913Z,9.18
2023-04-11T11:13:14.080Z,9.55
2023-04-11T11:15:51.473Z,9.80
2023-04-11T11:18:22.348Z,10.13
2023-04-11T11:20:58.402Z,11.55
2023-04-11T11:23:28.715Z,9.52
2023-04-11T11:26:03.077Z,10.00
2023-04-11T11:28:33.289Z,9.45
2023-04-11T11:31:04.316Z,9.57
2023-04-11T11:33:36.599Z,10.75
2023-04-11T11:41:13.091Z,12.05
2023-04-11T11:43:43.608Z,12.27
2023-04-11T11:46:17.853Z,13.65
2023-04-11T11:49:02.336Z,14.00
2023-04-11T11:51:43.918Z,14.05
2023-04-11T11:54:15.161Z,13.50
2023-04-11T11:56:54.523Z,10.55
2023-04-11T11:59:30.445Z,11.27
2023-04-11T12:02:00.994Z,11.95
2023-04-11T12:04:31.521Z,12.30
2023-04-11T12:07:11.466Z,11.60
2023-04-11T12:09:43.429Z,11.57
2023-04-11T12:12:18.899Z,11.15
2023-04-11T12:14:56.358Z,10.00
2023-04-11T12:17:26.582Z,10.23
2023-04-11T12:19:59.381Z,9.70
2023-04-11T12:22:29.804Z,10.77
2023-04-11T12:25:08.234Z,10.90
2023-04-11T12:27:41.846Z,12.05
2023-04-11T12:30:13.573Z,11.05
2023-04-11T12:32:44.025Z,9.85
2023-04-11T12:35:17.519Z,9.57
2023-04-11T12:37:48.155Z,8.55
2023-04-11T12:40:18.447Z,9.57
2023-04-11T12:42:56.458Z,11.02
2023-04-11T12:45:28.171Z,10.07
2023-04-11T12:47:58.371Z,10.20
2023-04-11T12:50:28.595Z,12.15
2023-04-11T12:52:58.810Z,11.27
2023-04-11T12:55:30.195Z,22.23
2023-04-11T12:58:03.098Z,11.27
2023-04-11T13:00:33.897Z,11.40
2023-04-11T13:03:05.028Z,10.43
2023-04-11T13:05:37.452Z,11.25
2023-04-11T13:08:10.080Z,13.98
2023-04-11T13:10:41.134Z,19.83
2023-04-11T13:15:48.027Z,11.18
2023-04-11T13:18:18.609Z,10.73
2023-04-11T13:20:49.116Z,13.55
2023-04-11T13:23:19.546Z,17.98
2023-04-11T13:25:49.826Z,26.52
2023-04-11T13:28:22.712Z,15.85
2023-04-11T13:30:53.306Z,14.18
2023-04-11T13:33:23.869Z,8.60
2023-04-11T13:35:54.081Z,11.90
2023-04-11T13:38:24.264Z,10.30
2023-04-11T13:40:54.593Z,9.50
2023-04-11T13:43:28.307Z,10.27
2023-04-11T13:45:58.844Z,10.05
2023-04-11T13:48:29.322Z,9.98
2023-04-11T13:51:00.255Z,8.88
2023-04-11T13:53:30.898Z,8.52
2023-04-11T13:56:01.182Z,8.32
2023-04-11T13:58:35.105Z,9.23
2023-04-11T14:01:05.747Z,8.77
2023-04-11T14:03:36.646Z,9.50
2023-04-11T14:06:09.169Z,10.32
2023-04-11T14:08:39.995Z,10.23
2023-04-11T14:11:11.055Z,10.55
2023-04-11T14:16:14.698Z,11.30
2023-04-11T14:18:45.570Z,11.35
2023-04-11T14:21:15.831Z,10.82
2023-04-11T14:23:46.167Z,10.55
2023-04-11T14:26:16.355Z,10.98
2023-04-11T14:28:49.114Z,10.67
2023-04-11T14:31:19.315Z,10.98
2023-04-11T14:33:49.600Z,10.80
2023-04-11T14:36:19.772Z,11.10
2023-04-11T14:38:50.012Z,10.90
2023-04-11T14:41:20.823Z,13.35
2023-04-11T14:43:53.605Z,11.32
2023-04-11T14:46:23.854Z,11.88
2023-04-11T14:48:54.305Z,10.43
2023-04-11T14:51:27.380Z,10.32
2023-04-11T14:53:59.973Z,11.40
2023-04-11T14:56:30.956Z,11.23
2023-04-11T14:59:06.840Z,11.88
2023-04-11T15:01:37.122Z,11.82
2023-04-11T15:04:07.717Z,12.95
2023-04-11T15:06:38.284Z,12.77
2023-04-11T15:09:09.113Z,13.43
2023-04-11T15:11:39.652Z,12.88
2023-04-11T15:14:12.419Z,13.68
2023-04-11T15:16:42.655Z,12.77
2023-04-11T15:19:12.892Z,13.37
2023-04-11T15:21:43.070Z,13.05
2023-04-11T15:24:13.559Z,11.05
2023-04-11T15:26:47.072Z,12.38
2023-04-11T15:29:20.273Z,11.85
2023-04-11T15:31:50.507Z,12.43
2023-04-11T15:34:23.541Z,12.48
2023-04-11T15:36:53.808Z,12.50
2023-04-11T15:39:24.236Z,11.68
2023-04-11T15:41:54.452Z,12.07
2023-04-11T15:44:28.510Z,12.00
2023-04-11T15:46:58.947Z,12.07
2023-04-11T15:49:29.210Z,12.77
2023-04-11T15:51:59.789Z,11.13
2023-04-11T15:54:29.994Z,11.50
2023-04-11T15:57:00.191Z,11.90
2023-04-11T15:59:33.682Z,10.32
2023-04-11T16:02:03.959Z,10.10
2023-04-11T16:04:34.416Z,11.23
2023-04-11T16:07:05.984Z,11.57
2023-04-11T16:09:36.188Z,10.07
2023-04-11T16:12:07.606Z,10.27
2023-04-11T16:14:40.289Z,10.73
2023-04-11T16:17:10.648Z,11.27
2023-04-11T16:19:41.640Z,11.82
2023-04-11T16:24:41.820Z,12.45
2023-04-11T16:27:12.090Z,13.32
2023-04-11T16:29:45.022Z,14.60
2023-04-11T16:32:15.343Z,14.07
2023-04-11T16:34:45.817Z,13.33
2023-04-11T16:37:16.513Z,12.25
2023-04-11T16:39:46.823Z,14.48
2023-04-11T16:42:17.242Z,14.13
2023-04-11T16:44:50.001Z,12.68
2023-04-11T16:47:20.703Z,12.73
2023-04-11T16:49:51.010Z,13.23
2023-04-11T16:52:21.639Z,13.60
2023-04-11T16:54:52.011Z,14.13
2023-04-11T16:57:22.471Z,15.63
2023-04-11T16:59:55.269Z,16.33
2023-04-11T17:02:25.693Z,16.52
2023-04-11T17:04:56.197Z,17.10
2023-04-11T17:07:28.671Z,18.48
2023-04-11T17:09:58.828Z,18.85
2023-04-11T17:12:29.175Z,19.63
2023-04-11T17:15:03.204Z,20.70
2023-04-11T17:20:25.828Z,19.45
2023-04-11T17:23:05.805Z,20.92
2023-04-11T17:25:40.526Z,21.52
2023-04-11T17:28:16.999Z,20.10
2023-04-11T17:30:54.529Z,21.92
2023-04-11T17:33:28.476Z,22.67
2023-04-11T17:36:06.872Z,23.27
2023-04-11T17:38:49.228Z,23.10
2023-04-11T17:41:39.265Z,24.63
2023-04-11T17:47:18.827Z,22.77
2023-04-11T17:49:58.135Z,28.08
2023-04-11T17:52:29.093Z,29.38
2023-04-11T17:55:03.801Z,34.08
2023-04-11T17:57:40.088Z,34.85
2023-04-11T18:00:30.602Z,32.35
2023-04-11T18:03:12.781Z,33.90
2023-04-11T18:06:15.167Z,36.20
2023-04-11T18:09:00.634Z,33.75
2023-04-11T18:11:43.163Z,34.70
2023-04-11T18:14:23.213Z,36.85
2023-04-11T18:17:04.426Z,35.63
2023-04-11T18:19:46.242Z,37.15
2023-04-11T18:22:17.414Z,39.63
2023-04-11T18:24:52.822Z,42.38
2023-04-11T18:27:29.776Z,43.65
2023-04-11T18:30:09.246Z,51.97
2023-04-11T18:32:51.093Z,55.15
2023-04-11T18:35:32.919Z,60.65
2023-04-11T18:38:12.068Z,58.38
2023-04-11T18:40:55.420Z,65.82
2023-04-11T18:43:40.620Z,57.28
2023-04-11T18:46:15.231Z,65.80
2023-04-11T18:48:51.134Z,68.43
2023-04-11T18:51:27.496Z,69.55
2023-04-11T18:54:03.593Z,64.72
2023-04-11T18:56:40.546Z,62.50
2023-04-11T18:59:15.836Z,60.10
2023-04-11T19:01:51.927Z,58.25
2023-04-11T19:04:26.351Z,57.78
2023-04-11T19:07:04.124Z,57.55
2023-04-11T19:09:51.022Z,60.05
2023-04-11T19:12:27.598Z,59.42
2023-04-11T19:15:06.075Z,61.20
2023-04-11T19:17:52.847Z,60.33
2023-04-11T19:20:33.267Z,56.40
2023-04-11T19:23:18.382Z,60.53
2023-04-11T19:25:58.294Z,62.85
2023-04-11T19:28:35.366Z,65.35
2023-04-11T19:31:05.688Z,64.63
2023-04-11T19:33:40.101Z,69.43
2023-04-11T19:36:19.979Z,71.70
2023-04-11T19:39:14.449Z,69.78
2023-04-11T19:42:13.428Z,71.43
2023-04-11T19:44:52.166Z,75.75
2023-04-11T19:47:30.050Z,73.47
2023-04-11T19:50:07.681Z,71.70
2023-04-11T19:52:45.858Z,63.38
2023-04-11T19:55:32.411Z,68.32
2023-04-11T19:58:07.067Z,68.82
2023-04-11T20:00:45.608Z,57.88
2023-04-11T20:03:23.426Z,47.58
2023-04-11T20:06:05.830Z,39.75
2023-04-11T20:08:43.253Z,26.60
2023-04-11T20:11:23.434Z,23.30
2023-04-11T20:13:59.964Z,20.02
2023-04-11T20:16:40.792Z,17.58
2023-04-11T20:19:15.575Z,17.00
2023-04-11T20:21:51.006Z,17.27
2023-04-11T20:24:26.407Z,16.33
2023-04-11T20:27:02.398Z,16.60
2023-04-11T20:29:39.368Z,15.70
2023-04-11T20:32:12.947Z,15.15
2023-04-11T20:34:58.629Z,14.68
2023-04-11T20:37:36.784Z,14.95
2023-04-11T20:40:14.779Z,15.02
2023-04-11T20:42:58.560Z,13.82
2023-04-11T20:45:36.365Z,13.55
2023-04-11T20:48:13.891Z,12.90
2023-04-11T20:50:48.977Z,13.20
2023-04-11T20:53:28.388Z,13.00
2023-04-11T20:56:06.558Z,12.82
2023-04-11T20:58:56.978Z,13.00
2023-04-11T21:01:38.447Z,13.30
2023-04-11T21:04:19.775Z,11.35
2023-04-11T21:09:31.940Z,12.48
2023-04-11T21:12:13.533Z,11.88
2023-04-11T21:14:54.124Z,12.38
2023-04-11T21:17:31.572Z,12.65
2023-04-11T21:20:12.502Z,11.73
2023-04-11T21:22:45.529Z,10.48
2023-04-11T21:25:24.489Z,9.75
2023-04-11T21:28:00.573Z,11.55
2023-04-11T21:30:36.902Z,10.68
2023-04-11T21:33:12.349Z,11.00
2023-04-11T21:35:52.405Z,10.18
2023-04-11T21:38:31.991Z,9.70
2023-04-11T21:41:03.223Z,8.77
2023-04-11T21:43:40.319Z,9.10
2023-04-11T21:46:21.659Z,8.32
2023-04-11T21:48:59.048Z,8.45
2023-04-11T21:51:36.361Z,8.40
2023-04-11T21:54:12.282Z,8.98
2023-04-11T21:56:47.099Z,9.00
2023-04-11T21:59:19.747Z,9.50
2023-04-11T22:01:59.261Z,9.55
2023-04-11T22:04:51.306Z,8.38
2023-04-11T22:07:48.159Z,8.23
2023-04-11T22:10:41.114Z,10.35
2023-04-11T22:13:21.413Z,12.20
2023-04-11T22:16:05.682Z,12.52
2023-04-11T22:18:53.670Z,11.88
2023-04-11T22:21:29.662Z,9.93
2023-04-11T22:24:10.866Z,9.38
2023-04-11T22:26:58.484Z,8.82
2023-04-11T22:29:36.826Z,7.63
2023-04-11T22:32:10.896Z,6.75
2023-04-11T22:34:45.223Z,5.68
2023-04-11T22:37:34.129Z,4.95
2023-04-11T22:40:07.797Z,3.35
2023-04-11T22:42:47.167Z,2.95
2023-04-11T22:45:22.153Z,2.40
2023-04-11T22:48:08.962Z,2.83
2023-04-11T22:51:00.198Z,2.45
2023-04-11T22:53:37.761Z,2.45
2023-04-11T22:56:15.526Z,2.25
2023-04-11T22:58:57.551Z,2.33
2023-04-11T23:01:30.987Z,2.88
2023-04-11T23:04:13.509Z,3.15
2023-04-11T23:06:51.226Z,2.83
2023-04-11T23:09:27.657Z,3.05
2023-04-11T23:12:19.978Z,3.65
2023-04-11T23:15:05.667Z,3.40
2023-04-11T23:17:48.306Z,3.50
2023-04-11T23:20:22.602Z,3.92
2023-04-11T23:23:07.911Z,3.78
2023-04-11T23:25:50.784Z,4.05
2023-04-11T23:28:28.338Z,3.88
2023-04-11T23:31:01.371Z,3.75
2023-04-11T23:33:34.630Z,3.53
2023-04-11T23:36:08.042Z,4.00
2023-04-11T23:38:42.503Z,4.30
2023-04-11T23:41:19.781Z,3.90
2023-04-11T23:43:58.201Z,3.97
2023-04-11T23:46:37.501Z,3.72
2023-04-11T23:49:14.101Z,3.80
2023-04-11T23:51:57.701Z,3.45
2023-04-11T23:54:32.698Z,3.72
2023-04-11T23:57:12.213Z,3.45
2023-04-11T23:59:48.617Z,3.92
